createdAt,value
2022-10-17T00:00:15.950Z,5.45
2022-10-17T00:03:19.582Z,6.15
2022-10-17T00:06:23.237Z,8.45
2022-10-17T00:09:26.932Z,7.10
2022-10-17T00:12:30.537Z,6.72
2022-10-17T00:15:36.089Z,9.30
2022-10-17T00:18:39.790Z,5.25
2022-10-17T00:21:43.397Z,6.35
2022-10-17T00:24:47.005Z,6.70
2022-10-17T00:27:50.601Z,12.18
2022-10-17T00:30:59.739Z,7.65
2022-10-17T00:34:03.475Z,8.27
2022-10-17T00:37:07.073Z,9.80
2022-10-17T00:40:12.162Z,8.20
2022-10-17T00:43:18.874Z,7.30
2022-10-17T00:46:26.165Z,8.68
2022-10-17T00:49:34.029Z,10.43
2022-10-17T00:52:38.142Z,8.13
2022-10-17T00:55:49.703Z,12.10
2022-10-17T00:58:53.634Z,9.00
2022-10-17T01:05:06.550Z,9.13
2022-10-17T01:08:12.557Z,8.38
2022-10-17T01:11:29.966Z,11.55
2022-10-17T01:14:42.898Z,9.50
2022-10-17T01:18:02.290Z,9.13
2022-10-17T01:21:31.652Z,8.93
2022-10-17T01:24:57.274Z,9.65
2022-10-17T01:28:18.887Z,7.78
2022-10-17T01:31:30.147Z,9.10
2022-10-17T01:34:37.434Z,8.60
2022-10-17T01:37:48.231Z,10.40
2022-10-17T01:40:57.695Z,13.07
2022-10-17T01:44:06.434Z,8.57
2022-10-17T01:47:17.054Z,10.68
2022-10-17T01:50:24.813Z,8.15
2022-10-17T01:53:34.607Z,9.15
2022-10-17T01:56:41.504Z,9.32
2022-10-17T01:59:50.030Z,8.20
2022-10-17T02:03:00.133Z,9.25
2022-10-17T02:06:04.217Z,11.13
2022-10-17T02:09:22.931Z,16.75
2022-10-17T02:12:44.074Z,12.45
2022-10-17T02:16:08.426Z,10.07
2022-10-17T02:19:38.230Z,10.32
2022-10-17T02:22:48.954Z,10.82
2022-10-17T02:25:59.411Z,12.45
2022-10-17T02:29:08.580Z,10.35
2022-10-17T02:32:16.665Z,10.93
2022-10-17T02:35:23.781Z,11.38
2022-10-17T02:38:29.133Z,12.70
2022-10-17T02:41:34.355Z,15.20
2022-10-17T02:44:41.681Z,11.77
2022-10-17T02:47:52.710Z,9.27
2022-10-17T02:51:05.158Z,12.45
2022-10-17T02:54:14.669Z,14.63
2022-10-17T02:57:23.542Z,11.85
2022-10-17T03:00:28.183Z,15.63
2022-10-17T03:03:34.338Z,13.63
2022-10-17T03:06:41.333Z,11.20
2022-10-17T03:09:45.046Z,9.10
2022-10-17T03:15:52.545Z,9.02
2022-10-17T03:18:56.418Z,16.40
2022-10-17T03:22:01.949Z,12.60
2022-10-17T03:25:07.882Z,10.38
2022-10-17T03:28:13.579Z,13.05
2022-10-17T03:31:18.753Z,16.25
2022-10-17T03:34:23.749Z,10.30
2022-10-17T03:37:29.810Z,16.33
2022-10-17T03:40:33.774Z,11.05
2022-10-17T03:46:41.314Z,12.93
2022-10-17T03:49:45.084Z,12.05
2022-10-17T03:52:51.204Z,9.85
2022-10-17T03:55:55.262Z,11.88
2022-10-17T03:58:59.990Z,12.25
2022-10-17T04:02:04.851Z,12.60
2022-10-17T04:05:09.751Z,12.00
2022-10-17T04:08:15.274Z,12.93
2022-10-17T04:14:51.742Z,13.65
2022-10-17T04:17:55.554Z,11.35
2022-10-17T04:20:59.489Z,12.82
2022-10-17T04:24:05.275Z,15.10
2022-10-17T04:27:35.364Z,13.70
2022-10-17T04:30:42.269Z,11.07
2022-10-17T04:33:50.706Z,17.15
2022-10-17T04:36:54.342Z,14.60
2022-10-17T04:40:00.418Z,13.88
2022-10-17T04:43:07.532Z,17.05
2022-10-17T04:46:15.863Z,16.88
2022-10-17T04:49:21.268Z,15.63
2022-10-17T04:52:29.476Z,12.52
2022-10-17T04:55:39.817Z,13.90
2022-10-17T04:58:45.313Z,15.88
2022-10-17T05:01:50.551Z,18.63
2022-10-17T05:04:55.195Z,16.25
2022-10-17T05:11:18.283Z,11.43
2022-10-17T05:14:21.921Z,14.07
2022-10-17T05:20:29.487Z,11.35
2022-10-17T05:23:33.269Z,11.45
2022-10-17T05:26:38.930Z,20.35
2022-10-17T05:29:42.598Z,12.38
2022-10-17T05:32:55.782Z,15.20
2022-10-17T05:35:59.927Z,17.42
2022-10-17T05:39:03.593Z,18.17
2022-10-17T05:42:11.166Z,16.77
2022-10-17T05:45:15.237Z,16.52
2022-10-17T05:48:19.193Z,14.35
2022-10-17T05:51:22.849Z,15.52
2022-10-17T05:54:27.028Z,15.45
2022-10-17T05:57:32.655Z,14.93
2022-10-17T06:00:37.410Z,13.27
2022-10-17T06:03:41.895Z,15.93
2022-10-17T06:06:46.748Z,15.35
2022-10-17T06:09:50.562Z,15.80
2022-10-17T06:15:59.807Z,13.75
2022-10-17T06:19:03.472Z,15.52
2022-10-17T06:22:07.792Z,14.57
2022-10-17T06:25:12.713Z,17.92
2022-10-17T06:31:22.936Z,17.58
2022-10-17T06:34:26.613Z,17.65
2022-10-17T06:37:36.295Z,13.20
2022-10-17T06:40:43.333Z,12.73
2022-10-17T06:43:49.249Z,14.93
2022-10-17T06:47:22.817Z,22.52
2022-10-17T06:50:28.670Z,13.90
2022-10-17T06:53:55.249Z,14.65
2022-10-17T06:57:06.077Z,15.20
2022-10-17T07:00:34.583Z,12.90
2022-10-17T07:03:39.617Z,14.90
2022-10-17T07:06:43.286Z,13.48
2022-10-17T07:09:53.347Z,15.32
2022-10-17T07:12:57.593Z,12.48
2022-10-17T07:16:03.195Z,11.70
2022-10-17T07:19:08.879Z,13.70
2022-10-17T07:22:15.066Z,25.33
2022-10-17T07:25:24.279Z,11.10
2022-10-17T07:28:36.525Z,14.05
2022-10-17T07:31:51.328Z,18.80
2022-10-17T07:34:54.945Z,11.90
2022-10-17T07:37:58.840Z,14.88
2022-10-17T07:41:06.559Z,12.18
2022-10-17T07:44:10.945Z,12.52
2022-10-17T07:47:23.509Z,13.82
2022-10-17T07:50:28.711Z,24.85
2022-10-17T07:53:32.398Z,9.60
2022-10-17T07:56:36.034Z,10.15
2022-10-17T07:59:40.084Z,15.68
2022-10-17T08:02:45.601Z,14.52
2022-10-17T08:05:49.215Z,14.82
2022-10-17T08:08:52.826Z,11.77
2022-10-17T08:11:56.550Z,10.15
2022-10-17T08:15:00.190Z,17.85
2022-10-17T08:18:05.812Z,14.57
2022-10-17T08:21:10.734Z,9.88
2022-10-17T08:24:14.355Z,12.48
2022-10-17T08:27:23.295Z,16.50
2022-10-17T08:30:29.946Z,9.43
2022-10-17T08:33:35.994Z,8.73
2022-10-17T08:36:39.630Z,11.43
2022-10-17T08:39:43.962Z,10.90
2022-10-17T08:43:08.742Z,10.38
2022-10-17T08:46:13.173Z,12.05
2022-10-17T08:49:33.269Z,14.13
2022-10-17T08:52:42.132Z,15.32
2022-10-17T08:55:48.503Z,11.73
2022-10-17T08:58:52.247Z,12.82
2022-10-17T09:02:04.189Z,10.63
2022-10-17T09:05:32.342Z,10.68
2022-10-17T09:08:45.666Z,12.90
2022-10-17T09:12:04.000Z,13.67
2022-10-17T09:15:39.932Z,12.20
2022-10-17T09:18:47.239Z,11.95
2022-10-17T09:21:55.123Z,11.82
2022-10-17T09:25:02.702Z,17.02
2022-10-17T09:28:17.547Z,12.57
2022-10-17T09:31:24.284Z,14.05
2022-10-17T09:34:29.885Z,10.95
2022-10-17T09:37:35.513Z,10.30
2022-10-17T09:40:39.199Z,11.25
2022-10-17T09:43:42.865Z,12.13
2022-10-17T09:46:58.271Z,15.25
2022-10-17T09:50:03.469Z,13.80
2022-10-17T09:53:15.112Z,9.73
2022-10-17T09:56:20.932Z,9.02
2022-10-17T09:59:33.402Z,8.23
2022-10-17T10:02:40.215Z,9.65
2022-10-17T10:05:59.079Z,7.15
2022-10-17T10:09:06.691Z,8.07
2022-10-17T10:12:21.154Z,8.45
2022-10-17T10:15:40.626Z,9.98
2022-10-17T10:18:46.446Z,11.38
2022-10-17T10:21:58.212Z,12.80
2022-10-17T10:25:18.372Z,9.15
2022-10-17T10:28:24.812Z,6.50
2022-10-17T10:31:32.660Z,8.15
2022-10-17T10:34:38.610Z,8.70
2022-10-17T10:37:45.113Z,10.82
2022-10-17T10:40:53.422Z,13.07
2022-10-17T10:43:57.673Z,11.90
2022-10-17T10:47:16.936Z,8.43
2022-10-17T10:50:28.119Z,10.02
2022-10-17T10:53:39.616Z,13.30
2022-10-17T10:56:51.122Z,8.05
2022-10-17T11:00:01.702Z,9.20
2022-10-17T11:03:12.943Z,13.70
2022-10-17T11:06:23.873Z,12.10
2022-10-17T11:09:37.665Z,11.25
2022-10-17T11:12:46.541Z,11.02
2022-10-17T11:15:59.023Z,11.55
2022-10-17T11:19:13.124Z,9.13
2022-10-17T11:22:18.173Z,8.13
2022-10-17T11:25:33.401Z,8.65
2022-10-17T11:28:39.022Z,7.30
2022-10-17T11:31:47.443Z,7.88
2022-10-17T11:34:54.703Z,7.43
2022-10-17T11:38:08.871Z,7.22
2022-10-17T11:44:26.762Z,9.45
2022-10-17T11:47:39.265Z,7.95
2022-10-17T11:54:15.554Z,16.75
2022-10-17T11:57:36.902Z,9.38
2022-10-17T12:00:53.871Z,9.18
2022-10-17T12:04:19.652Z,9.30
2022-10-17T12:07:31.661Z,7.55
2022-10-17T12:10:44.344Z,8.90
2022-10-17T12:13:54.026Z,13.23
2022-10-17T12:16:59.562Z,9.90
2022-10-17T12:20:25.654Z,9.10
2022-10-17T12:23:30.257Z,8.88
2022-10-17T12:26:34.486Z,16.08
2022-10-17T12:29:38.310Z,17.52
2022-10-17T12:33:06.679Z,12.93
2022-10-17T12:36:43.654Z,8.13
2022-10-17T12:39:47.268Z,13.18
2022-10-17T12:42:51.862Z,12.18
2022-10-17T12:45:56.337Z,9.45
2022-10-17T12:49:23.987Z,14.93
2022-10-17T12:52:49.352Z,11.52
2022-10-17T12:56:01.194Z,9.43
2022-10-17T12:59:11.511Z,11.25
2022-10-17T13:02:20.610Z,12.35
2022-10-17T13:05:29.919Z,9.90
2022-10-17T13:08:37.359Z,10.57
2022-10-17T13:11:44.538Z,10.35
2022-10-17T13:14:49.789Z,13.20
2022-10-17T13:18:00.586Z,10.07
2022-10-17T13:21:07.198Z,11.07
2022-10-17T13:24:22.651Z,9.90
2022-10-17T13:27:31.882Z,11.43
2022-10-17T13:30:37.488Z,10.15
2022-10-17T13:33:42.590Z,10.05
2022-10-17T13:36:49.119Z,12.05
2022-10-17T13:39:55.539Z,16.08
2022-10-17T13:43:03.566Z,9.80
2022-10-17T13:46:32.605Z,8.77
2022-10-17T13:49:35.357Z,12.18
2022-10-17T13:52:39.068Z,10.73
2022-10-17T13:56:09.438Z,14.88
2022-10-17T13:59:24.742Z,8.23
2022-10-17T14:02:30.250Z,11.90
2022-10-17T14:05:35.466Z,8.32
2022-10-17T14:08:40.579Z,11.68
2022-10-17T14:11:46.474Z,9.45
2022-10-17T14:15:11.295Z,11.05
2022-10-17T14:18:21.019Z,9.95
2022-10-17T14:21:43.703Z,14.48
2022-10-17T14:24:48.433Z,10.07
2022-10-17T14:31:20.990Z,11.30
2022-10-17T14:34:32.567Z,20.58
2022-10-17T14:37:43.140Z,8.45
2022-10-17T14:40:51.815Z,12.73
2022-10-17T14:43:58.556Z,13.15
2022-10-17T14:47:30.798Z,12.50
2022-10-17T14:50:31.219Z,11.40
2022-10-17T14:53:35.149Z,10.18
2022-10-17T14:56:43.579Z,11.18
2022-10-17T14:59:55.707Z,11.38
2022-10-17T15:03:01.776Z,9.25
2022-10-17T15:06:18.971Z,8.32
2022-10-17T15:09:23.237Z,12.38
2022-10-17T15:12:27.776Z,10.35
2022-10-17T15:15:33.027Z,11.15
2022-10-17T15:18:38.553Z,15.00
2022-10-17T15:21:46.906Z,12.77
2022-10-17T15:24:51.196Z,9.77
2022-10-17T15:27:55.317Z,12.85
2022-10-17T15:30:58.959Z,10.95
2022-10-17T15:34:04.510Z,10.32
2022-10-17T15:37:15.769Z,7.55
2022-10-17T15:40:22.589Z,7.18
2022-10-17T15:43:28.618Z,6.93
2022-10-17T15:46:35.846Z,7.22
2022-10-17T15:49:41.397Z,10.80
2022-10-17T15:52:46.439Z,9.13
2022-10-17T15:55:50.520Z,5.93
2022-10-17T15:58:54.791Z,6.72
2022-10-17T16:01:58.564Z,9.93
2022-10-17T16:05:04.170Z,7.43
2022-10-17T16:08:07.782Z,8.80
2022-10-17T16:11:18.108Z,8.00
2022-10-17T16:14:21.879Z,12.23
2022-10-17T16:17:25.490Z,11.60
2022-10-17T16:20:31.417Z,13.77
2022-10-17T16:23:35.151Z,9.05
2022-10-17T16:26:38.837Z,9.65
2022-10-17T16:29:42.597Z,12.10
2022-10-17T16:32:46.369Z,14.55
2022-10-17T16:35:52.393Z,12.02
2022-10-17T16:38:56.135Z,10.63
2022-10-17T16:41:59.827Z,9.90
2022-10-17T16:45:03.577Z,10.32
2022-10-17T16:48:07.531Z,11.07
2022-10-17T16:54:17.061Z,12.35
2022-10-17T16:57:20.693Z,14.40
2022-10-17T17:00:24.406Z,16.65
2022-10-17T17:03:28.112Z,10.43
2022-10-17T17:06:33.815Z,8.32
2022-10-17T17:09:37.446Z,12.77
2022-10-17T17:12:41.202Z,10.07
2022-10-17T17:19:12.639Z,13.30
2022-10-17T17:22:18.187Z,13.32
2022-10-17T17:25:21.843Z,14.10
2022-10-17T17:28:25.551Z,11.65
2022-10-17T17:31:31.124Z,12.82
2022-10-17T17:34:37.788Z,12.13
2022-10-17T17:37:43.374Z,11.48
2022-10-17T17:40:50.699Z,14.00
2022-10-17T17:43:55.517Z,15.52
2022-10-17T17:46:59.141Z,12.15
2022-10-17T17:50:03.018Z,11.02
2022-10-17T17:56:15.742Z,20.33
2022-10-17T17:59:19.404Z,24.75
2022-10-17T18:02:22.982Z,14.05
2022-10-17T18:05:26.609Z,19.30
2022-10-17T18:08:32.205Z,17.17
2022-10-17T18:11:36.662Z,14.25
2022-10-17T18:14:40.394Z,23.50
2022-10-17T18:17:44.052Z,17.27
2022-10-17T18:20:47.642Z,19.80
2022-10-17T18:23:53.263Z,16.95
2022-10-17T18:26:59.207Z,21.83
2022-10-17T18:30:03.014Z,23.48
2022-10-17T18:33:06.608Z,19.65
2022-10-17T18:36:12.990Z,21.98
2022-10-17T18:39:18.538Z,22.73
2022-10-17T18:42:22.247Z,25.73
2022-10-17T18:45:25.859Z,21.45
2022-10-17T18:48:29.475Z,19.90
2022-10-17T18:51:33.087Z,20.75
2022-10-17T18:54:38.738Z,19.75
2022-10-17T18:57:42.366Z,23.85
2022-10-17T19:00:46.090Z,22.05
2022-10-17T19:03:51.214Z,23.25
2022-10-17T19:06:54.932Z,20.45
2022-10-17T19:10:00.489Z,24.60
2022-10-17T19:13:04.137Z,27.92
2022-10-17T19:16:09.005Z,24.95
2022-10-17T19:19:15.150Z,28.13
2022-10-17T19:22:18.773Z,26.42
2022-10-17T19:25:24.417Z,23.42
2022-10-17T19:28:28.081Z,32.47
2022-10-17T19:31:33.226Z,27.40
2022-10-17T19:34:37.231Z,34.80
2022-10-17T19:40:46.120Z,23.80
2022-10-17T19:43:49.946Z,34.00
2022-10-17T19:46:53.836Z,32.08
2022-10-17T19:49:57.480Z,29.38
2022-10-17T19:53:01.093Z,24.75
2022-10-17T19:56:08.383Z,28.88
2022-10-17T19:59:14.058Z,25.13
2022-10-17T20:02:17.809Z,28.88
2022-10-17T20:05:23.710Z,30.27
2022-10-17T20:08:29.656Z,29.95
2022-10-17T20:11:35.221Z,29.60
2022-10-17T20:14:41.140Z,30.13
2022-10-17T20:17:44.929Z,28.30
2022-10-17T20:20:48.557Z,31.00
2022-10-17T20:23:52.258Z,28.50
2022-10-17T20:26:57.838Z,27.00
2022-10-17T20:30:01.926Z,32.58
2022-10-17T20:33:05.773Z,31.42
2022-10-17T20:36:10.874Z,35.88
2022-10-17T20:39:16.227Z,29.10
2022-10-17T20:42:22.526Z,30.10
2022-10-17T20:45:37.619Z,28.27
2022-10-17T20:48:53.131Z,29.17
2022-10-17T20:51:56.751Z,32.10
2022-10-17T20:55:00.379Z,33.90
2022-10-17T20:58:05.971Z,29.55
2022-10-17T21:01:11.263Z,26.08
2022-10-17T21:04:44.018Z,28.40
2022-10-17T21:07:39.028Z,33.22
2022-10-17T21:10:42.637Z,25.27
2022-10-17T21:13:49.485Z,24.95
2022-10-17T21:16:53.513Z,27.60
2022-10-17T21:23:01.039Z,32.83
2022-10-17T21:26:06.590Z,31.63
2022-10-17T21:29:13.982Z,30.85
2022-10-17T21:32:31.915Z,33.50
2022-10-17T21:35:41.178Z,29.90
2022-10-17T21:38:45.713Z,28.27
2022-10-17T21:41:49.362Z,29.10
2022-10-17T21:44:54.920Z,30.33
2022-10-17T21:48:12.571Z,28.00
2022-10-17T21:51:18.531Z,29.70
2022-10-17T21:54:24.297Z,29.38
2022-10-17T21:57:28.952Z,28.08
2022-10-17T22:00:34.490Z,30.67
2022-10-17T22:03:42.715Z,30.85
2022-10-17T22:06:52.614Z,25.27
2022-10-17T22:09:56.210Z,25.42
2022-10-17T22:12:59.822Z,29.13
2022-10-17T22:16:07.862Z,28.05
2022-10-17T22:19:14.282Z,33.28
2022-10-17T22:22:17.932Z,30.15
2022-10-17T22:25:21.634Z,29.73
2022-10-17T22:28:26.198Z,32.75
2022-10-17T22:31:31.915Z,37.00
2022-10-17T22:34:35.570Z,32.40
2022-10-17T22:37:39.239Z,28.75
2022-10-17T22:40:45.230Z,33.78
2022-10-17T22:43:48.862Z,30.67
2022-10-17T22:46:54.366Z,29.08
2022-10-17T22:49:58.047Z,32.45
2022-10-17T22:53:02.298Z,26.77
2022-10-17T22:56:08.517Z,25.85
2022-10-17T22:59:12.134Z,33.75
2022-10-17T23:02:17.696Z,27.55
2022-10-17T23:05:21.282Z,28.98
2022-10-17T23:08:25.325Z,32.83
2022-10-17T23:11:29.012Z,36.28
2022-10-17T23:14:32.735Z,30.27
2022-10-17T23:17:38.230Z,32.65
2022-10-17T23:20:41.967Z,32.05
2022-10-17T23:23:45.601Z,33.58
2022-10-17T23:26:49.224Z,38.60
2022-10-17T23:29:52.837Z,30.75
2022-10-17T23:32:58.378Z,29.75
2022-10-17T23:36:05.561Z,38.53
2022-10-17T23:39:09.215Z,37.70
2022-10-17T23:42:12.837Z,29.48
2022-10-17T23:45:16.651Z,30.08
2022-10-17T23:48:22.259Z,30.00
2022-10-17T23:51:25.894Z,33.15
2022-10-17T23:54:29.577Z,29.00
2022-10-17T23:57:33.663Z,30.63
